createdAt,value
2018-05-29T00:02:56.435Z,20.64
2018-05-29T00:05:59.039Z,20.66
2018-05-29T00:09:01.607Z,20.66
2018-05-29T00:12:04.112Z,20.72
2018-05-29T00:15:06.562Z,20.70
2018-05-29T00:18:09.072Z,20.71
2018-05-29T00:21:11.749Z,20.68
2018-05-29T00:24:14.237Z,20.60
2018-05-29T00:27:16.687Z,20.59
2018-05-29T00:30:19.184Z,20.47
2018-05-29T00:33:21.636Z,20.41
2018-05-29T00:36:24.168Z,20.41
2018-05-29T00:39:26.617Z,20.29
2018-05-29T00:42:29.102Z,20.20
2018-05-29T00:45:31.568Z,20.12
2018-05-29T00:48:34.073Z,20.10
2018-05-29T00:51:36.567Z,20.05
2018-05-29T00:54:40.355Z,20.09
2018-05-29T00:57:42.867Z,20.00
2018-05-29T01:00:45.312Z,20.04
2018-05-29T01:03:47.817Z,19.96
2018-05-29T01:06:50.403Z,19.92
2018-05-29T01:09:52.921Z,19.90
2018-05-29T01:12:55.422Z,19.89
2018-05-29T01:15:57.990Z,19.79
2018-05-29T01:19:00.463Z,19.76
2018-05-29T01:22:02.978Z,19.75
2018-05-29T01:25:05.567Z,19.71
2018-05-29T01:28:08.069Z,19.70
2018-05-29T01:31:10.497Z,19.70
2018-05-29T01:34:12.992Z,19.65
2018-05-29T01:37:15.517Z,19.61
2018-05-29T01:40:18.023Z,19.57
2018-05-29T01:43:20.529Z,19.56
2018-05-29T01:46:23.026Z,19.52
2018-05-29T01:49:25.619Z,19.56
2018-05-29T01:52:28.218Z,19.54
2018-05-29T01:55:30.693Z,19.51
2018-05-29T01:58:33.159Z,19.53
2018-05-29T02:01:35.648Z,19.50
2018-05-29T02:04:38.169Z,19.48
2018-05-29T02:07:40.637Z,19.46
2018-05-29T02:10:43.090Z,19.51
2018-05-29T02:13:45.608Z,19.53
2018-05-29T02:16:48.125Z,19.53
2018-05-29T02:19:50.564Z,19.54
2018-05-29T02:22:53.134Z,19.58
2018-05-29T02:25:55.641Z,19.68
2018-05-29T02:28:58.123Z,19.69
2018-05-29T02:32:00.592Z,19.71
2018-05-29T02:35:03.122Z,19.70
2018-05-29T02:38:05.749Z,19.65
2018-05-29T02:41:08.314Z,19.60
2018-05-29T02:44:10.843Z,19.56
2018-05-29T02:47:13.289Z,19.50
2018-05-29T02:50:15.824Z,19.43
2018-05-29T02:53:18.283Z,19.40
2018-05-29T02:56:20.822Z,19.30
2018-05-29T02:59:23.308Z,19.25
2018-05-29T03:02:25.795Z,19.20
2018-05-29T03:05:28.303Z,19.17
2018-05-29T03:08:30.750Z,19.14
2018-05-29T03:11:33.268Z,19.14
2018-05-29T03:14:35.729Z,19.16
2018-05-29T03:17:38.228Z,19.23
2018-05-29T03:20:40.688Z,19.39
2018-05-29T03:23:43.270Z,19.52
2018-05-29T03:26:45.749Z,19.60
2018-05-29T03:29:48.208Z,19.67
2018-05-29T03:32:50.745Z,19.82
2018-05-29T03:35:53.209Z,20.02
2018-05-29T03:38:55.699Z,20.11
2018-05-29T03:41:58.179Z,20.30
2018-05-29T03:45:00.663Z,20.45
2018-05-29T03:48:03.257Z,20.63
2018-05-29T03:51:05.759Z,20.95
2018-05-29T03:54:08.275Z,21.40
2018-05-29T03:57:10.744Z,21.52
2018-05-29T04:00:13.304Z,21.82
2018-05-29T04:03:15.752Z,21.88
2018-05-29T04:06:19.116Z,22.24
2018-05-29T04:09:21.588Z,22.33
2018-05-29T04:12:24.048Z,22.90
2018-05-29T04:15:26.564Z,23.40
2018-05-29T04:18:29.035Z,23.99
2018-05-29T04:21:31.569Z,24.49
2018-05-29T04:24:34.099Z,24.90
2018-05-29T04:27:36.580Z,25.14
2018-05-29T04:30:39.074Z,24.95
2018-05-29T04:33:41.595Z,25.14
2018-05-29T04:36:44.099Z,25.78
2018-05-29T04:39:46.700Z,26.63
2018-05-29T04:42:49.162Z,27.55
2018-05-29T04:45:51.639Z,27.75
2018-05-29T04:48:54.189Z,27.88
2018-05-29T04:51:56.630Z,28.61
2018-05-29T04:54:59.230Z,28.94
2018-05-29T04:58:01.800Z,28.92
2018-05-29T05:01:04.316Z,29.32
2018-05-29T05:04:06.784Z,28.77
2018-05-29T05:07:09.270Z,29.82
2018-05-29T05:10:11.747Z,29.91
2018-05-29T05:13:14.221Z,30.26
2018-05-29T05:16:16.725Z,30.10
2018-05-29T05:19:19.197Z,30.64
2018-05-29T05:22:21.706Z,30.60
2018-05-29T05:25:24.246Z,30.59
2018-05-29T05:28:26.723Z,30.39
2018-05-29T05:31:29.223Z,30.47
2018-05-29T05:34:31.692Z,29.51
2018-05-29T05:37:34.192Z,29.19
2018-05-29T05:40:36.655Z,28.49
2018-05-29T05:43:39.145Z,27.78
2018-05-29T05:46:41.673Z,28.89
2018-05-29T05:49:44.141Z,29.65
2018-05-29T05:52:46.731Z,30.50
2018-05-29T05:55:49.194Z,30.68
2018-05-29T05:58:51.711Z,31.20
2018-05-29T06:01:54.190Z,32.11
2018-05-29T06:04:56.694Z,31.63
2018-05-29T06:07:59.203Z,31.59
2018-05-29T06:11:01.766Z,31.20
2018-05-29T06:14:04.182Z,30.91
2018-05-29T06:17:06.692Z,30.72
2018-05-29T06:20:09.207Z,31.89
2018-05-29T06:23:11.680Z,32.22
2018-05-29T06:26:14.171Z,32.91
2018-05-29T06:29:16.635Z,33.35
2018-05-29T06:32:19.131Z,33.59
2018-05-29T06:35:21.564Z,33.18
2018-05-29T06:38:24.052Z,32.84
2018-05-29T06:41:26.534Z,33.46
2018-05-29T06:44:29.041Z,31.87
2018-05-29T06:47:31.552Z,32.47
2018-05-29T06:50:34.033Z,32.07
2018-05-29T06:53:36.548Z,32.38
2018-05-29T06:56:39.193Z,30.85
2018-05-29T06:59:41.667Z,29.59
2018-05-29T07:02:44.132Z,28.72
2018-05-29T07:05:46.762Z,27.78
2018-05-29T07:08:49.247Z,27.30
2018-05-29T07:11:51.712Z,27.01
2018-05-29T07:14:54.186Z,27.05
2018-05-29T07:17:56.783Z,27.00
2018-05-29T07:20:59.303Z,26.51
2018-05-29T07:24:01.808Z,26.27
2018-05-29T07:27:04.331Z,26.51
2018-05-29T07:30:06.789Z,26.73
2018-05-29T07:33:09.288Z,26.80
2018-05-29T07:36:11.784Z,26.91
2018-05-29T07:39:14.301Z,26.68
2018-05-29T07:42:16.808Z,26.79
2018-05-29T07:45:19.369Z,26.42
2018-05-29T07:48:21.828Z,26.51
2018-05-29T07:51:24.306Z,26.61
2018-05-29T07:54:26.897Z,26.79
2018-05-29T07:57:29.357Z,26.84
2018-05-29T08:00:31.867Z,26.84
2018-05-29T08:03:34.389Z,27.16
2018-05-29T08:06:36.874Z,27.45
2018-05-29T08:09:39.371Z,27.56
2018-05-29T08:12:41.832Z,27.76
2018-05-29T08:15:44.332Z,27.51
2018-05-29T08:18:46.788Z,27.53
2018-05-29T08:21:49.292Z,27.76
2018-05-29T08:24:51.966Z,27.60
2018-05-29T08:27:54.492Z,27.94
2018-05-29T08:30:56.944Z,27.95
2018-05-29T08:33:59.446Z,27.94
2018-05-29T08:37:01.934Z,27.52
2018-05-29T08:40:04.451Z,27.39
2018-05-29T08:43:06.919Z,27.57
2018-05-29T08:46:09.432Z,27.61
2018-05-29T08:49:11.887Z,27.70
2018-05-29T08:52:14.376Z,27.68
2018-05-29T08:55:16.886Z,27.65
2018-05-29T08:58:19.333Z,27.75
2018-05-29T09:01:21.878Z,27.85
2018-05-29T09:04:24.334Z,27.69
2018-05-29T09:07:26.825Z,27.72
2018-05-29T09:10:29.270Z,27.84
2018-05-29T09:13:31.758Z,27.71
2018-05-29T09:16:34.229Z,27.97
2018-05-29T09:19:36.717Z,27.64
2018-05-29T09:22:39.233Z,27.67
2018-05-29T09:25:41.727Z,27.59
2018-05-29T09:28:44.222Z,27.75
2018-05-29T09:31:46.737Z,27.99
2018-05-29T09:34:49.212Z,27.91
2018-05-29T09:37:51.723Z,27.95
2018-05-29T09:40:54.204Z,28.23
2018-05-29T09:43:56.843Z,28.27
2018-05-29T09:46:59.372Z,28.33
2018-05-29T09:50:01.828Z,28.29
2018-05-29T09:53:04.342Z,28.49
2018-05-29T09:56:06.809Z,28.63
2018-05-29T09:59:09.314Z,28.46
2018-05-29T10:02:11.800Z,28.62
2018-05-29T10:05:14.321Z,28.70
2018-05-29T10:08:16.827Z,28.98
2018-05-29T10:11:19.314Z,29.03
2018-05-29T10:14:21.794Z,29.00
2018-05-29T10:17:24.333Z,29.20
2018-05-29T10:20:26.798Z,29.03
2018-05-29T10:23:29.607Z,29.12
2018-05-29T10:26:32.080Z,29.34
2018-05-29T10:29:34.564Z,29.50
2018-05-29T10:32:37.151Z,29.06
2018-05-29T10:35:39.660Z,29.34
2018-05-29T10:38:42.174Z,29.33
2018-05-29T10:41:44.644Z,29.37
2018-05-29T10:44:47.111Z,29.26
2018-05-29T10:47:49.669Z,29.22
2018-05-29T10:50:52.193Z,29.19
2018-05-29T10:53:54.698Z,29.18
2018-05-29T10:56:57.186Z,29.09
2018-05-29T10:59:59.676Z,28.93
2018-05-29T11:03:02.184Z,29.18
2018-05-29T11:06:04.684Z,29.47
2018-05-29T11:09:07.210Z,29.78
2018-05-29T11:12:09.702Z,30.01
2018-05-29T11:15:12.191Z,30.09
2018-05-29T11:18:14.730Z,30.16
2018-05-29T11:21:17.229Z,30.23
2018-05-29T11:24:19.750Z,29.95
2018-05-29T11:27:22.264Z,29.54
2018-05-29T11:30:24.769Z,29.21
2018-05-29T11:33:27.225Z,29.32
2018-05-29T11:36:29.758Z,29.86
2018-05-29T11:39:32.235Z,29.97
2018-05-29T11:42:34.720Z,30.06
2018-05-29T11:45:37.184Z,30.08
2018-05-29T11:48:43.681Z,30.21
2018-05-29T11:51:46.120Z,30.32
2018-05-29T11:54:48.628Z,30.35
2018-05-29T11:57:51.079Z,29.97
2018-05-29T12:00:53.556Z,29.97
2018-05-29T12:03:56.033Z,30.05
2018-05-29T12:06:58.518Z,30.33
2018-05-29T12:10:01.104Z,30.47
2018-05-29T12:13:03.598Z,30.48
2018-05-29T12:16:06.054Z,30.36
2018-05-29T12:19:08.571Z,30.34
2018-05-29T12:22:11.031Z,30.51
2018-05-29T12:25:13.534Z,30.41
2018-05-29T12:28:16.036Z,30.50
2018-05-29T12:31:18.550Z,30.67
2018-05-29T12:34:21.193Z,30.90
2018-05-29T12:37:23.727Z,30.89
2018-05-29T12:40:26.238Z,30.98
2018-05-29T12:43:28.765Z,30.79
2018-05-29T12:46:31.231Z,30.68
2018-05-29T12:49:33.769Z,30.71
2018-05-29T12:52:36.286Z,30.71
2018-05-29T12:55:38.825Z,30.72
2018-05-29T12:58:41.402Z,30.90
2018-05-29T13:01:44.041Z,30.95
2018-05-29T13:04:46.566Z,30.92
2018-05-29T13:07:49.032Z,30.90
2018-05-29T13:10:51.665Z,30.94
2018-05-29T13:13:54.217Z,31.02
2018-05-29T13:16:56.702Z,31.22
2018-05-29T13:19:59.221Z,31.23
2018-05-29T13:23:01.796Z,31.35
2018-05-29T13:26:04.356Z,31.29
2018-05-29T13:29:06.858Z,31.26
2018-05-29T13:32:09.371Z,31.26
2018-05-29T13:35:11.870Z,31.37
2018-05-29T13:38:14.327Z,31.30
2018-05-29T13:41:16.776Z,31.25
2018-05-29T13:44:19.301Z,31.31
2018-05-29T13:47:21.815Z,31.26
2018-05-29T13:50:24.452Z,31.28
2018-05-29T13:53:26.955Z,31.21
2018-05-29T13:56:29.473Z,31.20
2018-05-29T13:59:31.935Z,31.39
2018-05-29T14:02:34.475Z,31.45
2018-05-29T14:05:37.015Z,31.45
2018-05-29T14:08:40.050Z,31.27
2018-05-29T14:11:42.575Z,31.37
2018-05-29T14:14:45.035Z,31.46
2018-05-29T14:17:47.576Z,31.60
2018-05-29T14:20:52.353Z,31.73
2018-05-29T14:23:54.853Z,31.75
2018-05-29T14:26:57.326Z,31.93
2018-05-29T14:29:59.821Z,31.93
2018-05-29T14:33:02.301Z,31.82
2018-05-29T14:36:04.808Z,31.71
2018-05-29T14:39:07.361Z,31.63
2018-05-29T14:42:10.083Z,31.55
2018-05-29T14:45:12.570Z,31.55
2018-05-29T14:48:15.082Z,31.70
2018-05-29T14:51:17.593Z,31.79
2018-05-29T14:54:20.212Z,31.72
2018-05-29T14:57:22.722Z,31.53
2018-05-29T15:00:25.287Z,31.65
2018-05-29T15:03:27.795Z,31.36
2018-05-29T15:06:30.292Z,31.20
2018-05-29T15:09:32.790Z,31.16
2018-05-29T15:12:35.301Z,31.21
2018-05-29T15:15:37.896Z,30.66
2018-05-29T15:18:40.460Z,30.52
2018-05-29T15:21:43.830Z,30.25
2018-05-29T15:24:46.313Z,29.98
2018-05-29T15:27:48.798Z,29.79
2018-05-29T15:30:51.247Z,29.70
2018-05-29T15:33:53.758Z,29.54
2018-05-29T15:36:56.286Z,29.35
2018-05-29T15:39:58.791Z,29.39
2018-05-29T15:43:01.324Z,29.35
2018-05-29T15:46:03.827Z,29.27
2018-05-29T15:49:06.337Z,29.23
2018-05-29T15:52:08.834Z,29.32
2018-05-29T15:55:11.368Z,29.38
2018-05-29T15:58:13.869Z,29.30
2018-05-29T16:01:16.353Z,29.35
2018-05-29T16:04:19.054Z,29.27
2018-05-29T16:07:21.622Z,29.14
2018-05-29T16:10:24.173Z,29.03
2018-05-29T16:13:26.707Z,28.91
2018-05-29T16:16:29.202Z,28.83
2018-05-29T16:19:31.661Z,28.79
2018-05-29T16:22:34.202Z,28.70
2018-05-29T16:25:36.773Z,28.72
2018-05-29T16:28:39.291Z,28.55
2018-05-29T16:31:41.833Z,28.54
2018-05-29T16:34:44.382Z,28.42
2018-05-29T16:37:46.897Z,28.20
2018-05-29T16:40:49.479Z,27.99
2018-05-29T16:43:51.950Z,27.96
2018-05-29T16:46:54.466Z,27.72
2018-05-29T16:49:56.933Z,27.78
2018-05-29T16:52:59.430Z,27.57
2018-05-29T16:56:01.903Z,27.54
2018-05-29T16:59:04.394Z,27.44
2018-05-29T17:02:06.889Z,27.38
2018-05-29T17:05:09.487Z,27.11
2018-05-29T17:08:12.073Z,26.95
2018-05-29T17:11:14.574Z,26.82
2018-05-29T17:14:17.079Z,26.56
2018-05-29T17:17:19.635Z,26.24
2018-05-29T17:20:22.184Z,25.89
2018-05-29T17:23:24.897Z,25.71
2018-05-29T17:26:27.379Z,25.73
2018-05-29T17:29:29.932Z,25.77
2018-05-29T17:32:32.458Z,25.66
2018-05-29T17:35:35.015Z,25.68
2018-05-29T17:38:37.648Z,25.53
2018-05-29T17:41:40.242Z,25.42
2018-05-29T17:44:42.637Z,25.48
2018-05-29T17:47:45.288Z,25.37
2018-05-29T17:50:47.978Z,25.37
2018-05-29T17:53:50.797Z,24.84
2018-05-29T17:56:53.491Z,24.71
2018-05-29T17:59:56.150Z,24.31
2018-05-29T18:02:58.775Z,24.19
2018-05-29T18:06:01.497Z,23.90
2018-05-29T18:09:04.043Z,23.82
2018-05-29T18:12:06.700Z,23.54
2018-05-29T18:15:09.382Z,23.43
2018-05-29T18:18:12.078Z,23.24
2018-05-29T18:21:14.917Z,23.22
2018-05-29T18:24:17.466Z,23.22
2018-05-29T18:27:20.108Z,23.18
2018-05-29T18:30:22.779Z,23.15
2018-05-29T18:33:25.348Z,22.93
2018-05-29T18:36:27.951Z,22.84
2018-05-29T18:39:30.450Z,22.83
2018-05-29T18:42:32.969Z,22.77
2018-05-29T18:45:35.526Z,22.53
2018-05-29T18:48:38.097Z,22.42
2018-05-29T18:51:40.593Z,22.29
2018-05-29T18:54:43.120Z,22.25
2018-05-29T18:57:45.727Z,22.28
2018-05-29T19:00:48.299Z,22.28
2018-05-29T19:03:50.796Z,22.21
2018-05-29T19:06:53.310Z,22.27
2018-05-29T19:09:55.923Z,22.28
2018-05-29T19:12:58.468Z,22.29
2018-05-29T19:16:00.956Z,22.26
2018-05-29T19:19:03.576Z,22.25
2018-05-29T19:22:06.101Z,22.18
2018-05-29T19:25:08.655Z,22.20
2018-05-29T19:28:11.184Z,22.07
2018-05-29T19:31:13.705Z,22.09
2018-05-29T19:34:16.271Z,22.03
2018-05-29T19:37:18.851Z,21.92
2018-05-29T19:40:21.378Z,21.89
2018-05-29T19:43:23.855Z,21.85
2018-05-29T19:46:26.390Z,21.78
2018-05-29T19:49:28.982Z,21.72
2018-05-29T19:52:31.509Z,21.72
2018-05-29T19:55:34.036Z,21.68
2018-05-29T19:58:36.505Z,21.70
2018-05-29T20:01:39.041Z,21.64
2018-05-29T20:04:41.506Z,21.54
2018-05-29T20:07:44.028Z,21.38
2018-05-29T20:10:46.608Z,21.36
2018-05-29T20:13:49.184Z,21.39
2018-05-29T20:16:51.750Z,21.36
2018-05-29T20:19:54.233Z,21.34
2018-05-29T20:22:56.783Z,21.32
2018-05-29T20:25:59.312Z,21.30
2018-05-29T20:29:01.889Z,21.35
2018-05-29T20:32:04.941Z,21.35
2018-05-29T20:35:08.164Z,21.45
2018-05-29T20:38:11.960Z,21.47
2018-05-29T20:41:14.444Z,21.47
2018-05-29T20:44:16.985Z,21.52
2018-05-29T20:47:20.254Z,21.54
2018-05-29T20:50:22.761Z,21.62
2018-05-29T20:53:25.301Z,21.52
2018-05-29T20:56:28.762Z,21.44
2018-05-29T20:59:31.217Z,21.37
2018-05-29T21:02:34.205Z,21.31
2018-05-29T21:05:37.060Z,21.29
2018-05-29T21:08:39.629Z,21.20
2018-05-29T21:11:42.144Z,21.27
2018-05-29T21:14:44.586Z,21.36
2018-05-29T21:17:47.101Z,21.30
2018-05-29T21:20:49.626Z,21.51
2018-05-29T21:23:52.167Z,21.40
2018-05-29T21:26:54.712Z,21.24
2018-05-29T21:29:57.127Z,20.91
2018-05-29T21:32:59.735Z,20.36
2018-05-29T21:36:02.172Z,19.98
2018-05-29T21:39:07.600Z,19.57
2018-05-29T21:42:10.092Z,19.44
2018-05-29T21:45:12.692Z,19.43
2018-05-29T21:48:15.185Z,19.28
2018-05-29T21:51:17.753Z,19.22
2018-05-29T21:54:20.277Z,19.20
2018-05-29T21:57:22.784Z,19.15
2018-05-29T22:00:25.297Z,18.99
2018-05-29T22:03:27.792Z,18.97
2018-05-29T22:06:30.387Z,18.95
2018-05-29T22:09:32.879Z,18.93
2018-05-29T22:12:35.463Z,18.87
2018-05-29T22:15:38.053Z,18.85
2018-05-29T22:18:40.515Z,18.79
2018-05-29T22:21:44.407Z,18.82
2018-05-29T22:24:46.935Z,18.78
2018-05-29T22:27:49.397Z,18.72
2018-05-29T22:30:51.941Z,18.69
2018-05-29T22:33:54.393Z,18.73
2018-05-29T22:36:56.865Z,18.67
2018-05-29T22:39:59.336Z,18.67
2018-05-29T22:43:01.833Z,18.65
2018-05-29T22:46:04.298Z,18.66
2018-05-29T22:49:06.818Z,18.65
2018-05-29T22:52:09.354Z,18.55
2018-05-29T22:55:11.875Z,18.53
2018-05-29T22:58:14.397Z,18.58
2018-05-29T23:01:16.933Z,18.58
2018-05-29T23:04:19.523Z,18.66
2018-05-29T23:07:22.018Z,18.52
2018-05-29T23:10:24.543Z,18.46
2018-05-29T23:13:27.059Z,18.65
2018-05-29T23:16:29.557Z,18.58
2018-05-29T23:19:32.048Z,18.61
2018-05-29T23:22:34.575Z,18.52
2018-05-29T23:25:37.099Z,18.46
2018-05-29T23:28:39.578Z,18.47
2018-05-29T23:31:42.117Z,18.44
2018-05-29T23:34:44.678Z,18.50
2018-05-29T23:37:47.177Z,18.52
2018-05-29T23:40:49.687Z,18.56
2018-05-29T23:43:52.152Z,18.54
2018-05-29T23:46:54.651Z,18.55
2018-05-29T23:49:57.146Z,18.51
2018-05-29T23:52:59.613Z,18.46
2018-05-29T23:56:02.088Z,18.50
2018-05-29T23:59:04.632Z,18.50
